North Elizabeth, New Jersey
Current Conditions -  °F | °C
As of 8:51 PM on Thursday 20 Nov 2014 (Local Time) from KEWR Reporting Station
Few Clouds Few Clouds  
Wind Chill: 28°   Ceiling: Unl
Heat Index: 35°   Visibility: 10mi
Dew Point:   Wind: 9mph
Humidity: 34%   Direction: 280°W
Pressure: 29.98"   Gusts: 21mph
Location:  40.6752°N, 74.2247°W
Report Text: KEWR 210151Z 28008G18KT 10SM FEW060 02/M13 A2998 RMK AO2 SLP151 T00171128 $
Loading
Personal Weather Stations






























Interactive Weather Map New forecast layout! Learn more

10-Day Weather Forecast

Advertisements
Track Severe Weather on mobile